Weather at Muscat International Airport

Public forecast

Using degrees Celsius for public forecast. Weather courtesy of forecast.io.

Current aviation weather report (METAR) for Muscat International Airport

Retrieved 2020/12/04 03:50 UTC (43 minutes ago):

OOMS 040350Z 23003KT CAVOK 23/17 Q1014 NOSIG

Aviation forecast (TAF) for Muscat International Airport

Retrieved 2020-12-04 00:00 UTC (5 hours ago):

TAF OOMS 032300Z 0400/0506 24005KT 8000 NSC BECMG 0406/0408 35012KT BECMG 0415/0417 24005KT